Time;durP1;ratioP1;P1;durP2;ratioP2;P2;SDS_P1;SDS_P2;PMS_P1;PMS_P2;Temp;Humidity;BMP_temperature;BMP_pressure;BME280_temperature;BME280_humidity;BME280_pressure;Samples;Min_cycle;Max_cycle;Signal;HPM_P1;HPM_P2
2023/07/09 00:00:05;;;;;;;3.25;3.03;;;;;;;19.15;58.72;63983.16;5127659;28;20250;-82
2023/07/09 00:02:33;;;;;;;3.80;2.53;;;;;;;19.17;58.24;63982.66;5112400;28;20219;-83
2023/07/09 00:05:00;;;;;;;2.97;2.78;;;;;;;19.18;58.47;63981.13;5130276;28;20195;-81
2023/07/09 00:07:31;;;;;;;3.33;2.30;;;;;;;19.16;58.22;63989.34;5128875;28;20281;-82
2023/07/09 00:09:59;;;;;;;4.63;2.53;;;;;;;19.17;58.38;63985.25;5125696;28;20237;-83
2023/07/09 00:12:27;;;;;;;2.60;2.50;;;;;;;19.19;58.16;63987.84;5130070;28;20218;-82
2023/07/09 00:14:54;;;;;;;2.05;1.95;;;;;;;19.18;57.76;63981.13;5131233;28;20371;-80
2023/07/09 00:17:27;;;;;;;2.58;2.38;;;;;;;19.16;58.07;63984.72;5126433;28;20241;-82
2023/07/09 00:19:54;;;;;;;3.03;2.72;;;;;;;19.14;57.93;63982.63;5112862;28;20283;-82
2023/07/09 00:22:21;;;;;;;3.15;2.45;;;;;;;19.23;58.12;63992.03;5125217;28;20222;-81
2023/07/09 00:24:52;;;;;;;3.17;2.92;;;;;;;19.25;57.74;63991.53;5131596;28;20202;-81
2023/07/09 00:27:20;;;;;;;3.78;2.75;;;;;;;19.21;57.65;63989.94;5122515;28;20260;-81
2023/07/09 00:29:47;;;;;;;2.92;2.67;;;;;;;19.22;57.22;63990.47;5131369;28;20194;-82
2023/07/09 00:32:16;;;;;;;2.95;2.28;;;;;;;19.25;57.51;63988.41;5128204;28;20219;-79
2023/07/09 00:34:48;;;;;;;4.43;2.22;;;;;;;19.21;57.35;63989.94;5123170;28;20267;-81
2023/07/09 00:37:16;;;;;;;2.72;2.53;;;;;;;19.21;56.75;63984.25;5125861;28;20230;-82
2023/07/09 00:39:44;;;;;;;3.08;2.50;;;;;;;19.26;56.40;63994.63;5129027;28;20368;-81
2023/07/09 00:42:17;;;;;;;2.67;2.53;;;;;;;19.28;56.11;63999.28;5114499;28;20214;-81
2023/07/09 00:44:45;;;;;;;2.05;2.03;;;;;;;19.34;56.41;64000.41;5121045;28;20202;-81
2023/07/09 00:47:43;;;;;;;4.43;2.47;;;;;;;19.35;56.05;64001.44;5128999;28;20236;-81
2023/07/09 00:50:17;;;;;;;2.63;2.42;;;;;;;19.34;56.09;64000.94;5129429;28;20230;-80
2023/07/09 00:52:51;;;;;;;3.55;3.00;;;;;;;19.28;55.88;63991.53;5120259;28;20279;-82
2023/07/09 00:55:23;;;;;;;3.72;2.65;;;;;;;19.36;55.97;64003.00;5132373;28;20265;-81
2023/07/09 00:57:57;;;;;;;4.63;2.58;;;;;;;19.31;56.08;64000.38;5126252;28;20207;-80
2023/07/09 01:00:28;;;;;;;3.20;2.50;;;;;;;19.29;56.15;63995.19;5121361;28;20198;-81
2023/07/09 01:02:58;;;;;;;3.30;2.20;;;;;;;19.37;56.04;64003.53;5132447;28;20191;-81
2023/07/09 01:05:25;;;;;;;3.45;2.45;;;;;;;19.14;55.72;63977.47;5129608;28;20221;-79
2023/07/09 01:07:53;;;;;;;2.60;2.33;;;;;;;19.35;55.77;64004.56;5122623;28;20252;-80
2023/07/09 01:10:21;;;;;;;3.15;2.78;;;;;;;19.34;55.52;64000.41;5135807;28;20230;-81
2023/07/09 01:12:51;;;;;;;2.65;2.42;;;;;;;19.31;55.50;64002.44;5131713;28;20198;-79
2023/07/09 01:15:18;;;;;;;3.00;2.78;;;;;;;19.26;54.94;63992.56;5127970;28;20216;-82
2023/07/09 01:17:45;;;;;;;5.47;2.58;;;;;;;19.23;55.26;63992.03;5131107;28;20354;-81
2023/07/09 01:20:20;;;;;;;3.78;2.40;;;;;;;19.18;55.33;63984.22;5128916;28;20198;-80
2023/07/09 01:22:54;;;;;;;3.45;2.80;;;;;;;19.20;55.66;63988.38;5128868;28;20266;-83
2023/07/09 01:25:22;;;;;;;3.72;2.55;;;;;;;19.11;55.21;63976.41;5130721;28;20209;-81
2023/07/09 01:27:49;;;;;;;3.67;2.80;;;;;;;19.07;55.96;63969.66;5112696;28;20382;-79
2023/07/09 01:30:22;;;;;;;6.93;2.75;;;;;;;19.03;55.78;63968.59;5112860;28;20245;-79
2023/07/09 01:32:49;;;;;;;4.43;2.45;;;;;;;18.98;55.87;63963.34;5130237;28;20201;-81
2023/07/09 01:35:18;;;;;;;3.45;2.58;;;;;;;18.99;56.15;63963.88;5133623;28;20190;-81
2023/07/09 01:37:47;;;;;;;4.25;2.80;;;;;;;18.91;56.50;63958.66;5133697;28;20259;-80
2023/07/09 01:40:22;;;;;;;6.20;2.25;;;;;;;18.91;56.53;63956.09;5128465;28;20271;-81
2023/07/09 01:42:49;;;;;;;2.47;2.38;;;;;;;18.81;56.70;63948.22;5131141;28;20274;-80
2023/07/09 01:45:16;;;;;;;2.85;2.50;;;;;;;18.81;57.10;63942.56;5132702;28;20191;-82
2023/07/09 01:47:45;;;;;;;2.65;2.38;;;;;;;18.78;57.04;63936.84;5131995;28;20198;-81
2023/07/09 01:50:12;;;;;;;2.22;2.03;;;;;;;18.72;57.36;63938.31;5128485;28;20191;-81
2023/07/09 01:52:42;;;;;;;4.38;2.85;;;;;;;18.71;57.17;63937.81;5135347;28;20210;-81
2023/07/09 01:55:11;;;;;;;2.30;2.20;;;;;;;18.68;57.42;63934.69;5113465;28;20199;-82
2023/07/09 01:57:40;;;;;;;2.40;2.30;;;;;;;18.62;57.41;63922.75;5124545;28;20222;-83
2023/07/09 02:00:11;;;;;;;3.15;2.47;;;;;;;18.64;57.38;63927.41;5114996;28;20232;-80
2023/07/09 02:02:38;;;;;;;2.50;2.30;;;;;;;18.63;57.82;63928.94;5132564;28;20214;-82
2023/07/09 02:05:07;;;;;;;3.78;2.50;;;;;;;18.63;58.11;63923.78;5133698;28;20199;-80
2023/07/09 02:07:34;;;;;;;2.80;2.60;;;;;;;18.65;58.31;63926.41;5130801;28;20250;-82
2023/07/09 02:10:02;;;;;;;3.00;2.30;;;;;;;18.70;57.79;63934.19;5132252;28;20216;-80
2023/07/09 02:12:29;;;;;;;2.70;2.50;;;;;;;18.68;58.22;63934.16;5131212;28;20289;-81
2023/07/09 02:14:57;;;;;;;2.50;2.30;;;;;;;18.60;58.61;63923.78;5131107;28;20258;-84
2023/07/09 02:17:29;;;;;;;3.78;2.78;;;;;;;18.67;58.30;63931.06;5115685;28;20603;-81
2023/07/09 02:19:56;;;;;;;2.38;2.25;;;;;;;18.58;58.41;63921.69;5112257;28;20270;-81
2023/07/09 02:22:24;;;;;;;5.90;2.90;;;;;;;18.60;58.92;63926.34;5122688;28;20282;-81
2023/07/09 02:24:52;;;;;;;2.50;2.10;;;;;;;18.61;59.51;63926.84;5122450;28;20206;-82
2023/07/09 02:27:21;;;;;;;3.63;2.58;;;;;;;18.53;60.76;63915.94;5126675;28;20249;-82
2023/07/09 02:29:48;;;;;;;2.83;2.58;;;;;;;18.41;60.22;63909.13;5132212;28;20203;-83
2023/07/09 02:32:20;;;;;;;2.92;2.63;;;;;;;18.35;60.31;63900.78;5130305;28;20227;-81
2023/07/09 02:34:48;;;;;;;2.55;2.40;;;;;;;18.19;62.03;63886.69;5131496;28;20240;-82
2023/07/09 02:37:17;;;;;;;2.40;2.22;;;;;;;18.11;61.97;63873.22;5135064;28;20214;-84
2023/07/09 02:39:45;;;;;;;3.85;2.70;;;;;;;18.03;62.45;63864.88;5132015;28;20195;-83
2023/07/09 02:42:14;;;;;;;3.22;2.80;;;;;;;17.95;62.80;63851.38;5128270;28;20210;-81
2023/07/09 02:44:43;;;;;;;6.05;2.55;;;;;;;17.87;63.14;63845.09;5129217;28;20217;-83
2023/07/09 02:47:10;;;;;;;3.17;2.30;;;;;;;17.86;63.73;63847.16;5131645;28;20274;-82
2023/07/09 02:49:40;;;;;;;3.38;2.15;;;;;;;17.80;62.75;63840.38;5130595;27;20531;-81
2023/07/09 02:52:09;;;;;;;3.53;2.70;;;;;;;17.72;62.98;63829.50;5129396;28;20242;-82
2023/07/09 02:54:37;;;;;;;2.40;2.20;;;;;;;17.61;65.46;63823.19;5131942;28;20195;-81
2023/07/09 02:57:04;;;;;;;3.20;2.72;;;;;;;17.51;66.12;63815.88;5131407;28;20278;-81
2023/07/09 02:59:32;;;;;;;3.03;2.83;;;;;;;17.47;67.34;63806.53;5129011;28;20213;-82
2023/07/09 03:02:00;;;;;;;2.17;2.08;;;;;;;17.46;66.91;63812.69;5127431;28;20229;-81
2023/07/09 03:04:28;;;;;;;2.65;2.35;;;;;;;17.36;67.26;63791.97;5130835;28;20203;-82
2023/07/09 03:06:56;;;;;;;2.72;2.53;;;;;;;17.22;67.85;63780.50;5132600;28;20247;-80
2023/07/09 03:09:23;;;;;;;2.55;2.45;;;;;;;17.26;68.45;63780.03;5130269;28;20224;-82
2023/07/09 03:11:50;;;;;;;3.80;2.83;;;;;;;17.20;68.04;63781.00;5126982;28;20286;-82
2023/07/09 03:14:18;;;;;;;2.60;2.40;;;;;;;17.11;69.40;63772.16;5129967;28;20488;-83
2023/07/09 03:16:50;;;;;;;2.83;2.47;;;;;;;17.10;69.23;63768.00;5131963;28;20219;-82
2023/07/09 03:19:17;;;;;;;2.53;2.42;;;;;;;17.02;70.09;63762.25;5129607;28;20240;-82
2023/07/09 03:21:44;;;;;;;2.70;2.60;;;;;;;17.09;70.77;63764.38;5119970;28;20211;-83
2023/07/09 03:24:15;;;;;;;4.10;2.60;;;;;;;17.18;70.77;63776.34;5130683;28;20197;-82
2023/07/09 03:26:41;;;;;;;3.35;3.05;;;;;;;17.26;70.94;63785.19;5127339;28;20512;-82
2023/07/09 03:29:09;;;;;;;3.05;2.75;;;;;;;17.15;70.50;63773.72;5127458;28;20195;-81
2023/07/09 03:31:36;;;;;;;2.95;2.75;;;;;;;17.28;70.61;63789.84;5125624;28;20234;-80
2023/07/09 03:34:03;;;;;;;2.53;2.38;;;;;;;17.35;71.11;63796.59;5131494;28;20190;-82
2023/07/09 03:36:31;;;;;;;4.45;2.75;;;;;;;17.39;72.14;63800.78;5132372;28;20253;-83
2023/07/09 03:38:58;;;;;;;3.50;3.20;;;;;;;17.43;71.61;63804.41;5130907;28;20230;-82
2023/07/09 03:41:26;;;;;;;4.47;2.70;;;;;;;17.58;73.22;63820.06;5128823;28;20225;-84
2023/07/09 03:43:54;;;;;;;3.03;2.72;;;;;;;17.55;72.82;63816.94;5130631;28;20194;-83
2023/07/09 03:46:21;;;;;;;3.15;2.83;;;;;;;17.64;70.06;63826.81;5127525;28;20543;-81
2023/07/09 03:48:50;;;;;;;5.18;2.90;;;;;;;17.68;71.14;63825.31;5115082;28;20199;-82
2023/07/09 03:51:17;;;;;;;3.08;2.85;;;;;;;17.72;71.43;63832.06;5111021;28;20227;-82
2023/07/09 03:53:44;;;;;;;3.08;2.55;;;;;;;17.78;70.96;63843.97;5122360;28;20262;-82
2023/07/09 03:56:11;;;;;;;3.75;2.97;;;;;;;17.89;70.48;63849.75;5126866;28;20581;-83
2023/07/09 03:58:40;;;;;;;2.80;2.60;;;;;;;18.02;69.90;63865.88;5129501;28;20258;-81
2023/07/09 04:01:07;;;;;;;3.95;3.22;;;;;;;18.12;69.48;63871.66;5125400;28;20230;-83
2023/07/09 04:03:34;;;;;;;3.00;2.88;;;;;;;18.09;70.68;63868.53;5130122;28;20240;-83
2023/07/09 04:06:01;;;;;;;4.32;2.75;;;;;;;18.09;69.89;63876.28;5128778;28;20214;-83
2023/07/09 04:08:29;;;;;;;4.65;2.88;;;;;;;18.16;69.77;63881.00;5127897;28;20206;-81
2023/07/09 04:11:00;;;;;;;3.78;2.20;;;;;;;18.14;70.08;63876.31;5116166;28;20210;-81
2023/07/09 04:13:28;;;;;;;4.10;2.92;;;;;;;18.29;68.18;63894.03;5111498;28;20206;-81
2023/07/09 04:15:56;;;;;;;2.75;2.55;;;;;;;18.49;67.99;63912.28;5123402;28;20236;-82
2023/07/09 04:18:23;;;;;;;2.90;2.50;;;;;;;18.69;67.58;63932.63;5132130;28;20194;-83
2023/07/09 04:20:51;;;;;;;4.25;2.72;;;;;;;18.81;67.07;63942.56;5126378;28;20218;-84
2023/07/09 04:23:19;;;;;;;3.17;2.97;;;;;;;18.80;67.46;63944.59;5127382;28;20202;-82
2023/07/09 04:25:46;;;;;;;4.55;3.03;;;;;;;18.92;66.45;63959.69;5131218;28;20210;-82
2023/07/09 04:28:13;;;;;;;3.22;2.63;;;;;;;19.00;65.03;63968.03;5115812;28;20199;-81
2023/07/09 04:30:41;;;;;;;4.45;3.00;;;;;;;19.00;65.53;63962.34;5117783;28;20239;-81
2023/07/09 04:33:09;;;;;;;6.60;3.08;;;;;;;19.09;64.36;63974.84;5115133;28;20230;-82
2023/07/09 04:35:36;;;;;;;3.35;3.13;;;;;;;19.24;64.97;63987.38;5110656;28;20242;-80
2023/07/09 04:38:03;;;;;;;3.55;3.25;;;;;;;19.31;64.73;64000.38;5113083;28;20195;-79
2023/07/09 04:40:31;;;;;;;3.38;2.75;;;;;;;19.32;64.36;64001.44;5130213;28;20198;-82
2023/07/09 04:42:58;;;;;;;4.05;2.72;;;;;;;19.44;65.36;64013.41;5124271;28;20495;-79
2023/07/09 04:45:25;;;;;;;6.22;3.45;;;;;;;19.46;63.82;64018.63;5128438;28;20278;-81
2023/07/09 04:47:52;;;;;;;3.63;2.50;;;;;;;19.39;63.05;64005.63;5131048;28;20191;-81
2023/07/09 04:50:21;;;;;;;4.40;2.65;;;;;;;19.48;62.46;64020.69;5126419;28;20218;-80
2023/07/09 04:52:48;;;;;;;4.60;3.03;;;;;;;19.52;63.12;64021.75;5127686;28;20222;-81
2023/07/09 04:55:18;;;;;;;5.03;3.08;;;;;;;19.54;62.55;64021.78;5128834;28;20197;-81
2023/07/09 04:57:45;;;;;;;3.53;3.22;;;;;;;19.53;62.32;64018.16;5130386;28;20197;-80
2023/07/09 05:00:14;;;;;;;4.00;2.70;;;;;;;19.54;62.45;64021.25;5123199;28;20219;-79
2023/07/09 05:02:40;;;;;;;2.97;2.78;;;;;;;19.62;62.50;64037.38;5129424;28;20195;-81
2023/07/09 05:05:08;;;;;;;5.35;2.85;;;;;;;19.67;62.42;64034.81;5129284;28;20199;-80
2023/07/09 05:07:37;;;;;;;2.90;2.70;;;;;;;19.62;61.61;64032.19;5123415;28;20214;-81
2023/07/09 05:10:04;;;;;;;3.20;2.90;;;;;;;19.66;63.09;64031.19;5124374;28;20195;-80
2023/07/09 05:12:31;;;;;;;2.80;2.60;;;;;;;19.77;61.62;64047.31;5123098;28;20246;-79
2023/07/09 05:14:59;;;;;;;8.95;4.68;;;;;;;19.89;61.93;64062.41;5120019;28;20192;-81
2023/07/09 05:17:26;;;;;;;5.10;2.88;;;;;;;20.00;61.34;64077.00;5117517;28;20246;-83
2023/07/09 05:19:53;;;;;;;6.35;3.00;;;;;;;19.97;61.19;64068.16;5120219;28;20199;-80
2023/07/09 05:22:20;;;;;;;7.25;3.13;;;;;;;19.79;62.04;64044.22;5110585;28;20273;-80
2023/07/09 05:24:49;;;;;;;4.93;2.90;;;;;;;19.78;63.10;64053.53;5115933;28;20446;-80
2023/07/09 05:27:19;;;;;;;5.00;3.30;;;;;;;19.77;63.69;64042.16;5121824;28;20439;-82
2023/07/09 05:29:46;;;;;;;3.53;3.22;;;;;;;19.90;64.26;64060.88;5126502;28;20251;-82
2023/07/09 05:32:13;;;;;;;3.88;3.53;;;;;;;19.95;63.90;64066.09;5124308;28;20231;-81
2023/07/09 05:34:40;;;;;;;3.97;2.92;;;;;;;19.97;62.68;64060.41;5129840;28;20243;-82
2023/07/09 05:38:22;;;;;;;3.47;3.15;;;;;;;20.10;63.28;64076.56;5134188;28;20215;-79
2023/07/09 05:41:00;;;;;;;3.33;3.08;;;;;;;20.04;58.92;64072.91;5102821;28;20223;-79
2023/07/09 05:43:27;;;;;;;2.55;2.45;;;;;;;20.03;61.91;64072.38;5127299;28;20206;-80
2023/07/09 05:45:54;;;;;;;3.80;3.47;;;;;;;20.15;61.32;64084.38;5119629;28;20211;-80
2023/07/09 05:48:21;;;;;;;6.10;3.05;;;;;;;20.40;59.35;64110.47;5117979;28;20202;-79
2023/07/09 05:50:49;;;;;;;6.95;2.65;;;;;;;20.43;58.60;64111.53;5124171;28;20211;-81
2023/07/09 05:53:17;;;;;;;4.05;2.80;;;;;;;20.58;57.68;64131.88;5119832;28;20226;-80
2023/07/09 05:55:44;;;;;;;3.78;2.97;;;;;;;20.47;56.78;64117.78;5125514;28;20225;-80
2023/07/09 05:58:13;;;;;;;4.07;3.00;;;;;;;20.27;57.73;64096.91;5127561;28;20265;-78
2023/07/09 06:00:41;;;;;;;6.93;3.58;;;;;;;20.24;59.34;64099.47;5119787;28;20214;-80
2023/07/09 06:03:08;;;;;;;3.97;2.88;;;;;;;20.51;60.07;64122.50;5123453;28;20202;-80
2023/07/09 06:05:36;;;;;;;3.65;2.90;;;;;;;20.45;57.03;64113.63;5123435;28;20220;-81
2023/07/09 06:08:04;;;;;;;4.55;3.08;;;;;;;20.69;57.46;64140.78;5119436;28;20202;-82
2023/07/09 06:10:31;;;;;;;3.85;2.88;;;;;;;20.88;56.67;64160.59;5115932;28;20196;-81
2023/07/09 06:12:59;;;;;;;2.50;2.40;;;;;;;20.61;56.56;64135.53;5126596;28;20576;-80
2023/07/09 06:15:27;;;;;;;3.17;2.97;;;;;;;20.56;56.57;64125.13;5129838;28;20194;-81
2023/07/09 06:17:54;;;;;;;4.45;3.03;;;;;;;20.53;57.99;64127.19;5123420;28;20195;-81
2023/07/09 06:20:21;;;;;;;5.28;3.08;;;;;;;20.82;57.90;64151.75;5124773;28;20207;-81
2023/07/09 06:22:48;;;;;;;6.30;3.08;;;;;;;21.03;55.96;64170.56;5121864;28;20202;-79
2023/07/09 06:25:15;;;;;;;2.85;2.65;;;;;;;20.83;57.59;64157.44;5121248;28;20230;-79
2023/07/09 06:27:42;;;;;;;3.72;3.08;;;;;;;20.83;58.20;64155.38;5126575;28;20203;-79
2023/07/09 06:30:10;;;;;;;4.07;3.15;;;;;;;20.98;56.26;64167.94;5122601;28;20203;-79
2023/07/09 06:32:39;;;;;;;4.03;2.88;;;;;;;21.08;55.81;64186.16;5116556;28;20242;-79
2023/07/09 06:35:06;;;;;;;3.20;3.00;;;;;;;20.98;56.63;64173.09;5118702;28;21283;-83
2023/07/09 06:37:33;;;;;;;3.88;3.10;;;;;;;21.11;57.75;64186.69;5120232;28;20223;-80
2023/07/09 06:40:02;;;;;;;3.28;3.08;;;;;;;21.06;57.68;64178.88;5126736;28;20248;-80
2023/07/09 06:42:29;;;;;;;4.32;3.50;;;;;;;20.88;57.34;64157.50;5123418;28;20233;-81
2023/07/09 06:44:56;;;;;;;2.88;2.67;;;;;;;20.80;57.09;64149.13;5124957;28;20192;-79
2023/07/09 06:47:24;;;;;;;4.30;3.13;;;;;;;20.91;58.08;64166.31;5119559;28;20237;-81
2023/07/09 06:49:53;;;;;;;4.82;3.00;;;;;;;21.14;56.71;64187.25;5123028;28;20195;-81
2023/07/09 06:52:19;;;;;;;3.10;2.90;;;;;;;21.12;57.58;64185.16;5127952;28;20258;-82
2023/07/09 06:54:49;;;;;;;4.30;3.03;;;;;;;21.22;57.44;64195.59;5119569;28;20183;-82
2023/07/09 06:57:16;;;;;;;3.90;3.22;;;;;;;21.38;56.42;64215.41;5120452;28;20211;-82
2023/07/09 06:59:44;;;;;;;5.68;3.22;;;;;;;21.26;57.10;64195.09;5126317;28;20183;-79
2023/07/09 07:02:11;;;;;;;2.97;2.83;;;;;;;21.07;56.48;64180.44;5120359;28;20214;-80
2023/07/09 07:04:38;;;;;;;3.28;3.08;;;;;;;21.04;58.07;64171.63;5119283;28;20416;-81
2023/07/09 07:07:07;;;;;;;3.25;2.97;;;;;;;21.12;57.34;64185.66;5127727;28;20214;-81
2023/07/09 07:09:34;;;;;;;3.78;2.70;;;;;;;21.13;57.15;64188.78;5126299;28;20218;-81
2023/07/09 07:12:01;;;;;;;3.30;3.00;;;;;;;21.04;56.57;64177.31;5114302;28;20230;-80
2023/07/09 07:14:28;;;;;;;3.40;3.10;;;;;;;21.25;56.64;64201.31;5124368;28;20396;-80
2023/07/09 07:16:57;;;;;;;4.60;2.90;;;;;;;21.40;56.32;64211.78;5122564;28;20226;-80
2023/07/09 07:19:25;;;;;;;5.82;3.15;;;;;;;21.40;55.16;64217.50;5124586;28;20211;-78
2023/07/09 07:21:53;;;;;;;3.28;2.95;;;;;;;21.56;55.32;64231.63;5119601;28;20294;-79
2023/07/09 07:24:21;;;;;;;5.85;3.22;;;;;;;21.64;56.07;64234.81;5116076;28;20234;-78
2023/07/09 07:26:49;;;;;;;3.17;2.95;;;;;;;21.64;55.04;64237.41;5116338;28;20228;-80
2023/07/09 07:29:15;;;;;;;2.83;2.63;;;;;;;21.88;54.80;64266.63;5119593;28;20198;-79
2023/07/09 07:31:43;;;;;;;3.08;2.90;;;;;;;22.00;54.31;64277.13;5126650;28;20548;-80
2023/07/09 07:34:11;;;;;;;6.55;3.50;;;;;;;22.24;52.25;64304.78;5121278;28;20194;-80
2023/07/09 07:36:39;;;;;;;2.80;2.63;;;;;;;22.15;53.25;64292.78;5132853;28;20214;-80
2023/07/09 07:39:06;;;;;;;7.93;3.03;;;;;;;22.20;51.99;64300.59;5129544;28;20193;-79
2023/07/09 07:41:34;;;;;;;3.28;3.08;;;;;;;22.02;52.56;64283.88;5117668;28;20225;-79
2023/07/09 07:44:02;;;;;;;4.28;2.72;;;;;;;22.09;54.62;64291.69;5131811;28;20194;-81
2023/07/09 07:46:32;;;;;;;2.80;2.60;;;;;;;21.89;53.16;64267.69;5129714;28;20223;-80
2023/07/09 07:48:59;;;;;;;5.03;3.00;;;;;;;22.02;53.87;64279.19;5132460;28;20191;-81
2023/07/09 07:51:27;;;;;;;5.28;3.20;;;;;;;22.31;52.29;64308.97;5128721;28;20222;-81
2023/07/09 07:53:56;;;;;;;3.30;2.90;;;;;;;22.48;52.32;64326.75;5133973;28;20217;-83
2023/07/09 07:56:26;;;;;;;3.60;3.40;;;;;;;22.46;52.40;64327.78;5129524;28;20222;-79
2023/07/09 07:58:55;;;;;;;3.22;2.83;;;;;;;22.75;51.67;64357.59;5130876;28;20195;-80
2023/07/09 08:01:22;;;;;;;2.92;2.72;;;;;;;22.90;51.15;64373.81;5125266;28;20616;-81
2023/07/09 08:03:49;;;;;;;3.28;2.97;;;;;;;22.55;51.72;64334.63;5131274;28;20225;-83
2023/07/09 08:06:18;;;;;;;3.08;2.78;;;;;;;22.61;51.77;64342.94;5127475;28;20213;-83
2023/07/09 08:08:48;;;;;;;3.53;3.03;;;;;;;22.49;51.67;64327.78;5123932;28;20208;-81
2023/07/09 08:11:19;;;;;;;4.38;3.25;;;;;;;22.50;51.89;64326.75;5131130;28;20206;-83
2023/07/09 08:13:46;;;;;;;6.72;2.92;;;;;;;22.73;51.20;64356.03;5131027;28;20234;-83
2023/07/09 08:16:14;;;;;;;3.95;2.75;;;;;;;22.73;49.46;64353.44;5121927;28;20219;-81
2023/07/09 08:18:42;;;;;;;2.80;2.60;;;;;;;22.57;50.34;64336.69;5117677;28;20209;-83
2023/07/09 08:21:11;;;;;;;3.67;3.22;;;;;;;22.80;50.38;64362.81;5127908;28;20215;-84
2023/07/09 08:23:38;;;;;;;3.40;3.20;;;;;;;22.90;49.27;64368.59;5128094;28;20207;-81
2023/07/09 08:26:06;;;;;;;3.13;2.92;;;;;;;23.06;50.41;64390.00;5130625;28;20241;-82
2023/07/09 08:28:36;;;;;;;3.47;3.17;;;;;;;23.09;50.76;64393.16;5124350;28;20236;-82
2023/07/09 08:31:03;;;;;;;5.88;2.92;;;;;;;23.09;52.53;64390.53;5131902;28;20215;-81
2023/07/09 08:33:33;;;;;;;3.22;3.03;;;;;;;22.90;51.62;64371.22;5125186;28;20227;-86
2023/07/09 08:36:00;;;;;;;3.50;3.20;;;;;;;23.09;51.59;64392.63;5124398;28;20220;-81
2023/07/09 08:38:31;;;;;;;5.88;3.47;;;;;;;23.05;52.20;64386.38;5133090;28;20254;-84
2023/07/09 08:41:00;;;;;;;3.47;3.17;;;;;;;23.19;50.56;64400.50;5126747;28;20602;-83
2023/07/09 08:43:37;;;;;;;2.90;2.70;;;;;;;23.29;50.70;64411.50;5126277;28;20197;-80
2023/07/09 08:46:12;;;;;;;3.25;3.05;;;;;;;23.44;51.05;64429.25;5117927;28;20559;-81
2023/07/09 08:48:45;;;;;;;3.78;2.70;;;;;;;23.56;50.85;64444.41;5128095;28;20235;-81
2023/07/09 08:51:18;;;;;;;3.30;3.00;;;;;;;23.50;49.99;64432.94;5117606;28;20223;-83
2023/07/09 08:53:51;;;;;;;3.63;3.00;;;;;;;23.62;50.13;64448.63;5116711;28;20229;-84
2023/07/09 08:56:19;;;;;;;5.68;3.00;;;;;;;23.55;48.97;64438.69;5129277;28;20230;-83
2023/07/09 08:58:49;;;;;;;3.65;3.45;;;;;;;23.42;49.63;64427.69;5122212;28;20186;-85
2023/07/09 09:01:21;;;;;;;4.13;3.72;;;;;;;23.68;49.49;64457.50;5118596;28;20257;-83
2023/07/09 09:03:52;;;;;;;3.55;3.35;;;;;;;23.52;49.17;64435.53;5125248;28;20500;-82
2023/07/09 09:06:23;;;;;;;3.53;3.22;;;;;;;23.45;51.19;64430.81;5119810;28;20234;-83
2023/07/09 09:09:06;;;;;;;3.83;3.17;;;;;;;23.54;52.00;64435.03;5129684;28;20498;-85
2023/07/09 09:11:44;;;;;;;3.72;3.08;;;;;;;23.48;50.31;64430.84;5121382;28;20217;-83
2023/07/09 09:14:26;;;;;;;3.63;3.33;;;;;;;23.47;49.97;64435.53;5129290;28;20231;-82
2023/07/09 09:16:54;;;;;;;3.67;3.47;;;;;;;23.52;51.73;64435.03;5123522;28;20237;-81
2023/07/09 09:19:27;;;;;;;4.05;3.60;;;;;;;23.68;51.99;64457.50;5120176;28;20412;-82
2023/07/09 09:22:03;;;;;;;3.45;3.17;;;;;;;23.76;50.09;64463.25;5124688;28;20218;-83
2023/07/09 09:24:36;;;;;;;6.65;3.45;;;;;;;23.84;51.73;64474.25;5128636;28;20202;-80
2023/07/09 09:27:04;;;;;;;14.77;3.78;;;;;;;23.62;51.36;64442.91;5128389;28;20228;-82
2023/07/09 09:29:32;;;;;;;4.07;3.72;;;;;;;23.93;50.20;64481.06;5126141;28;20273;-82
2023/07/09 09:32:11;;;;;;;5.65;3.28;;;;;;;24.19;50.31;64504.66;5131185;28;20286;-82
2023/07/09 09:34:40;;;;;;;3.80;3.50;;;;;;;24.04;50.03;64489.47;5120909;28;20246;-81
2023/07/09 09:37:12;;;;;;;3.67;3.25;;;;;;;24.02;49.61;64489.47;5136959;28;20214;-84
2023/07/09 09:39:40;;;;;;;3.85;3.65;;;;;;;23.75;50.64;64461.69;5119575;28;20423;-82
2023/07/09 09:42:13;;;;;;;3.10;2.90;;;;;;;23.99;49.59;64484.75;5132978;28;20214;-84
2023/07/09 09:44:45;;;;;;;4.00;3.17;;;;;;;23.80;50.10;64466.94;5128724;28;20203;-83
2023/07/09 09:47:13;;;;;;;4.07;3.50;;;;;;;23.66;50.04;64447.09;5123626;28;20214;-82
2023/07/09 09:49:43;;;;;;;5.03;3.20;;;;;;;23.89;51.39;64468.53;5132897;28;20209;-85
2023/07/09 09:52:14;;;;;;;3.45;3.25;;;;;;;24.09;49.65;64494.19;5134645;28;20282;-83
2023/07/09 09:54:42;;;;;;;3.88;3.65;;;;;;;24.10;48.84;64492.63;5131281;28;20252;-83
2023/07/09 09:57:18;;;;;;;3.55;3.17;;;;;;;24.23;49.41;64506.75;5114273;28;20582;-82
2023/07/09 09:59:47;;;;;;;3.38;3.13;;;;;;;24.10;48.67;64498.34;5113253;28;20262;-81
2023/07/09 10:02:19;;;;;;;4.53;3.15;;;;;;;24.05;49.08;64487.91;5123373;28;20278;-79
2023/07/09 10:04:48;;;;;;;3.60;3.40;;;;;;;23.92;47.96;64474.81;5125353;28;21127;-79
2023/07/09 10:07:22;;;;;;;3.88;3.47;;;;;;;24.09;49.50;64494.69;5125530;28;20246;-78
2023/07/09 10:09:52;;;;;;;3.85;3.50;;;;;;;24.05;49.36;64490.00;5121470;28;20189;-79
2023/07/09 10:12:34;;;;;;;3.78;3.47;;;;;;;24.24;48.94;64509.88;5125493;28;20230;-80
2023/07/09 10:15:15;;;;;;;3.95;3.45;;;;;;;24.28;49.28;64519.78;5122250;28;20217;-80
2023/07/09 10:17:50;;;;;;;4.03;3.72;;;;;;;24.43;47.22;64534.97;5115569;28;20393;-80
2023/07/09 10:20:25;;;;;;;3.13;2.83;;;;;;;24.19;47.08;64502.03;5120752;28;20205;-76
2023/07/09 10:22:58;;;;;;;4.55;3.38;;;;;;;24.13;47.56;64501.50;5115828;28;20199;-78
2023/07/09 10:25:45;;;;;;;3.95;3.30;;;;;;;24.39;46.52;64528.72;5127657;28;20233;-77
2023/07/09 10:28:53;;;;;;;6.15;3.38;;;;;;;24.61;47.84;64548.63;5127952;28;20243;-78
2023/07/09 10:31:28;;;;;;;2.85;2.72;;;;;;;24.48;47.45;64535.00;5109865;28;20215;-80
2023/07/09 10:34:04;;;;;;;3.55;2.85;;;;;;;24.74;47.81;64568.00;5115078;28;20238;-78
2023/07/09 10:36:46;;;;;;;3.15;3.05;;;;;;;24.89;47.99;64583.16;5113918;28;20271;-79
2023/07/09 10:39:17;;;;;;;3.42;3.13;;;;;;;24.96;46.96;64587.91;5128107;28;20198;-77
2023/07/09 10:41:46;;;;;;;3.60;3.30;;;;;;;25.12;45.97;64602.06;5126437;28;20218;-78
2023/07/09 10:44:18;;;;;;;3.95;3.35;;;;;;;24.90;46.38;64576.91;5130307;28;20539;-79
2023/07/09 10:46:50;;;;;;;3.33;3.13;;;;;;;24.95;46.48;64586.84;5127660;27;20215;-79
2023/07/09 10:49:19;;;;;;;3.13;2.92;;;;;;;25.01;44.16;64591.06;5130145;28;20183;-80
2023/07/09 10:51:53;;;;;;;3.53;3.33;;;;;;;25.17;44.61;64611.97;5123769;28;20293;-80
2023/07/09 10:54:30;;;;;;;3.15;2.97;;;;;;;25.04;44.46;64596.78;5126251;28;20226;-76
2023/07/09 10:57:06;;;;;;;3.78;3.30;;;;;;;24.90;44.98;64579.53;5133035;28;20286;-79
2023/07/09 10:59:38;;;;;;;3.00;2.90;;;;;;;25.04;44.55;64591.59;5126841;28;20194;-78
2023/07/09 11:02:20;;;;;;;3.42;3.15;;;;;;;24.78;44.00;64564.34;5122735;28;20219;-78
2023/07/09 11:04:52;;;;;;;4.10;3.10;;;;;;;24.85;43.48;64574.28;5125876;28;20237;-77
2023/07/09 11:07:27;;;;;;;3.35;3.05;;;;;;;24.87;44.41;64576.38;5127607;28;20225;-81
2023/07/09 11:09:59;;;;;;;2.58;2.38;;;;;;;24.98;44.31;64587.91;5125351;28;20202;-78
2023/07/09 11:12:37;;;;;;;3.33;3.13;;;;;;;25.07;45.23;64599.94;5131027;27;20211;-78
2023/07/09 11:15:08;;;;;;;2.83;2.60;;;;;;;24.96;43.79;64590.50;5107452;28;20231;-78
2023/07/09 11:17:40;;;;;;;4.50;3.08;;;;;;;24.98;45.51;64590.00;5124942;28;20218;-77
2023/07/09 11:20:18;;;;;;;3.10;2.80;;;;;;;25.02;42.69;64597.31;5117441;28;20267;-79
2023/07/09 11:22:53;;;;;;;2.95;2.58;;;;;;;25.22;41.27;64615.13;5128189;28;20232;-78
2023/07/09 11:25:30;;;;;;;3.20;3.00;;;;;;;25.43;42.65;64637.16;5131809;28;20191;-77
2023/07/09 11:28:05;;;;;;;3.05;2.95;;;;;;;25.48;41.53;64639.78;5121737;27;20191;-79
2023/07/09 11:30:33;;;;;;;3.20;3.00;;;;;;;25.75;39.83;64670.16;5129100;28;20203;-80
2023/07/09 11:33:03;;;;;;;3.05;2.85;;;;;;;25.84;41.36;64676.97;5125240;28;20230;-79
2023/07/09 11:35:44;;;;;;;3.30;2.97;;;;;;;25.91;41.17;64689.53;5130500;28;20202;-80
2023/07/09 11:38:18;;;;;;;2.83;2.63;;;;;;;25.93;41.85;64689.03;5123001;28;20222;-79
2023/07/09 11:40:50;;;;;;;3.75;3.00;;;;;;;25.89;41.46;64685.34;5123177;28;20254;-80
2023/07/09 11:43:29;;;;;;;6.47;3.10;;;;;;;25.73;42.58;64668.59;5128704;28;20202;-81
2023/07/09 11:46:00;;;;;;;3.53;3.20;;;;;;;25.83;41.15;64676.47;5125788;28;20235;-84